Terminal Aerodrome Forecast
Issued by NWS Jackson, MS

Home | Current Version | Previous Version | Text Only | Print | Product List | Glossary On
Versions: 1 2 3 4 5 6 7 8 9 10 11 12
068
FTUS44 KJAN 300549 RRA
TAFMEI
TAF
KMEI 300549Z 3006/3106 18009KT P6SM BKN015 BKN250
     FM300900 18009KT 6SM -SHRA VCTS BKN025 OVC050CB
     FM301900 19014KT 6SM SHRA VCTS BKN030CB OVC130
     FM310100 20009KT P6SM VCSH BKN090 BKN250=

USA.gov is the U.S. government's official web portal to all federal, state and local government web resources and services.